Flight Track Log - Related Links

Times and Time Zones

All times are in EDT time to prevent confusion due to time zone crossing. See the SWA2975 flight status page for this flight to view local times or setup timezone preferences in your user account.

Time Position Orientation Groundspeed Altitude Reporting Facility
EDT Latitude Longitude Course Direction KTS MPH feet Rate Location/Type
Mon 06:32:03 PM 40.7710 -111.9730 175° South 179 206 4,900  Level FlightAware ADS-B
Mon 06:32:18 PM 40.7580 -111.9750 187° South 184 212 5,500 1,826 Climbing FlightAware ADS-B
Mon 06:32:26 PM 40.7520 -111.9800 212° Southwest 203 234 5,600 1,000 Climbing FlightAware ADS-B
Mon 06:32:48 PM 40.7430 -112.0080 247° West 236 272 6,000 1,560 Climbing FlightAware ADS-B
Mon 06:33:16 PM 40.7500 -112.0490 283° West 254 292 6,900 2,077 Climbing FlightAware ADS-B
Mon 06:33:40 PM 40.7640 -112.0800 301° West 261 300 7,800 2,571 Climbing FlightAware ADS-B
Mon 06:34:12 PM 40.7930 -112.1120 320° Northwest 256 295 9,300 2,714 Climbing FlightAware ADS-B
Mon 06:34:22 PM 40.8060 -112.1150 350° North 263 303 9,700 1,846 Climbing FlightAware ADS-B
Mon 06:34:51 PM 40.8380 -112.0960 24° Northeast 284 327 10,500 1,867 Climbing FlightAware ADS-B
Mon 06:35:07 PM 40.8480 -112.0720 61° Northeast 291 335 11,100 2,327 Climbing FlightAware ADS-B
Mon 06:35:40 PM 40.8700 -112.0180 62° Northeast 301 346 12,400 2,260 Climbing FlightAware ADS-B
Mon 06:36:24 PM 40.9040 -111.9490 57° Northeast 310 357 14,000 1,694 Climbing FlightAware ADS-B
Mon 06:37:05 PM 40.9470 -111.8900 46° Northeast 354 407 14,800 1,390 Climbing FlightAware ADS-B
Mon 06:37:46 PM 40.9960 -111.8230 46° Northeast 379 436 15,900 2,259 Climbing FlightAware ADS-B
Mon 06:38:30 PM 41.0520 -111.7520 44° Northeast 374 430 18,000 2,500 Climbing FlightAware ADS-B
Mon 06:39:10 PM 41.1000 -111.6860 46° Northeast 386 444 19,400 1,610 Climbing FlightAware ADS-B
Mon 06:39:52 PM 41.1550 -111.6100 46° Northeast 415 478 20,200 1,342 Climbing FlightAware ADS-B
Mon 06:40:26 PM 41.1890 -111.5410 57° Northeast 422 486 21,100 1,899 Climbing FlightAware ADS-B
Mon 06:41:11 PM 41.2260 -111.4330 65° Northeast 425 489 22,700 1,862 Climbing FlightAware ADS-B
Mon 06:41:53 PM 41.2600 -111.3320 66° East 435 501 23,800 1,541 Climbing FlightAware ADS-B
Mon 06:42:25 PM 41.2860 -111.2510 67° East 442 509 24,600 1,421 Climbing FlightAware ADS-B
Mon 06:43:09 PM 41.3130 -111.1350 73° East 454 522 25,600 1,071 Climbing FlightAware ADS-B
Mon 06:43:49 PM 41.3300 -111.0250 78° East 473 544 26,100 494 Climbing FlightAware ADS-B
Mon 06:44:34 PM 41.3490 -110.9050 78° East 481 554 26,300 148 Climbing FlightAware ADS-B
Mon 06:45:10 PM 41.3630 -110.8170 78° East 481 554 26,300  Level FlightAware ADS-B
Mon 06:45:59 PM 41.3820 -110.6960 78° East 481 554 26,300  Level FlightAware ADS-B
Mon 06:46:34 PM 41.3960 -110.6090 78° East 481 554 26,300  Level FlightAware ADS-B
Mon 06:47:35 PM 41.4200 -110.4590 78° East 481 554 26,300 1,935 Level FlightAware ADS-B
Mon 06:50:08 PM 41.4960 -109.8740 80° East 516 594 33,200 2,400 Climbing FlightAware ADS-B
Mon 06:50:50 PM 41.5110 -109.7390 82° East 512 589 34,100 1,214 Climbing FlightAware ADS-B
Mon 06:51:32 PM 41.5250 -109.6100 82° East 508 585 34,900 643 Climbing FlightAware ADS-B
Mon 06:52:14 PM 41.5400 -109.4790 81° East 511 588 35,000 70 Climbing FlightAware ADS-B
Mon 06:52:58 PM 41.5550 -109.3420 82° East 511 588 35,000  Level FlightAware ADS-B
Mon 06:53:38 PM 41.5690 -109.2160 82° East 511 588 35,000  Level FlightAware ADS-B
Mon 06:54:22 PM 41.5830 -109.0800 82° East 513 590 35,000  Level FlightAware ADS-B
Mon 06:55:02 PM 41.5950 -108.9530 83° East 511 588 35,000  Level FlightAware ADS-B
Mon 06:55:48 PM 41.6060 -108.8100 84° East 513 590 35,000  Level FlightAware ADS-B
Mon 06:56:29 PM 41.6160 -108.6800 84° East 515 593 35,000  Level FlightAware ADS-B
Mon 06:57:08 PM 41.6260 -108.5580 84° East 514 592 35,000  Level FlightAware ADS-B
Mon 06:57:51 PM 41.6360 -108.4200 84° East 514 592 35,000  Level FlightAware ADS-B
Mon 06:58:25 PM 41.6430 -108.3110 85° East 514 592 35,000  Level FlightAware ADS-B
Mon 06:59:10 PM 41.6360 -108.1710 94° East 509 586 35,000  Level FlightAware ADS-B
Mon 06:59:49 PM 41.6230 -108.0510 98° East 509 586 35,000  Level FlightAware ADS-B
Mon 07:00:30 PM 41.6090 -107.9230 98° East 508 585 35,000  Level FlightAware ADS-B
Mon 07:01:15 PM 41.5930 -107.7850 99° East 510 587 35,000  Level FlightAware ADS-B
Mon 07:01:55 PM 41.5790 -107.6600 98° East 510 587 35,000  Level FlightAware ADS-B
Mon 07:02:39 PM 41.5630 -107.5250 99° East 510 587 35,000  Level FlightAware ADS-B
Mon 07:03:16 PM 41.5520 -107.4140 98° East 512 589 35,000  Level FlightAware ADS-B
Mon 07:03:55 PM 41.5530 -107.2850 89° East 514 592 35,000  Level FlightAware ADS-B
Mon 07:04:38 PM 41.5560 -107.1470 88° East 513 590 35,000  Level FlightAware ADS-B
Mon 07:05:18 PM 41.5590 -107.0260 88° East 515 593 35,000  Level FlightAware ADS-B
Mon 07:06:27 PM 41.5630 -106.8270 88° East 515 593 35,000  Level FlightAware ADS-B
Mon 07:07:03 PM 41.5650 -106.7300 88° East 515 593 35,000  Level FlightAware ADS-B
Mon 07:07:39 PM 41.5680 -106.6320 88° East 515 593 35,000  Level FlightAware ADS-B
Mon 07:08:22 PM 41.5660 -106.4380 91° East 516 594 35,000  Level FlightAware ADS-B
Mon 07:09:03 PM 41.5680 -106.3080 89° East 514 592 35,000  Level FlightAware ADS-B
Mon 07:09:49 PM 41.5690 -106.1630 89° East 514 592 35,000  Level FlightAware ADS-B
Mon 07:10:28 PM 41.5700 -106.0400 89° East 515 593 35,000  Level FlightAware ADS-B
Mon 07:11:25 PM 41.5710 -105.8570 90° East 514 592 35,000  Level FlightAware ADS-B
Mon 07:12:07 PM 41.5720 -105.7250 89° East 515 593 35,000  Level FlightAware ADS-B
Mon 07:12:43 PM 41.5730 -105.6120 89° East 514 592 35,000  Level FlightAware ADS-B
Mon 07:13:23 PM 41.5730 -105.4860 90° East 512 589 35,000  Level FlightAware ADS-B
Mon 07:14:03 PM 41.5740 -105.3560 89° East 512 589 35,000  Level FlightAware ADS-B
Mon 07:14:40 PM 41.5740 -105.2410 90° East 511 588 35,000  Level FlightAware ADS-B
Mon 07:15:37 PM 41.5740 -105.0610 90° East 509 586 35,000  Level FlightAware ADS-B
Mon 07:16:18 PM 41.5740 -104.9340 90° East 508 585 35,000  Level FlightAware ADS-B
Mon 07:16:58 PM 41.5730 -104.8070 91° East 505 581 35,000  Level FlightAware ADS-B
Mon 07:17:44 PM 41.5730 -104.6680 90° East 506 582 35,000  Level FlightAware ADS-B
Mon 07:18:26 PM 41.5730 -104.5350 90° East 506 582 35,000  Level FlightAware ADS-B
Mon 07:19:08 PM 41.5720 -104.4060 91° East 502 578 35,000  Level FlightAware ADS-B
Mon 07:19:48 PM 41.5710 -104.2810 91° East 501 577 35,000  Level FlightAware ADS-B
Mon 07:20:31 PM 41.5700 -104.1470 91° East 502 578 35,000  Level FlightAware ADS-B
Mon 07:21:14 PM 41.5690 -104.0170 91° East 503 579 35,000  Level FlightAware ADS-B
Mon 07:21:54 PM 41.5670 -103.8920 91° East 503 579 35,000  Level FlightAware ADS-B
Mon 07:22:34 PM 41.5660 -103.7670 91° East 503 579 35,000  Level FlightAware ADS-B
Mon 07:23:18 PM 41.5650 -103.6400 91° East 508 585 35,000  Level FlightAware ADS-B
Mon 07:23:58 PM 41.5630 -103.5090 91° East 510 587 35,000  Level FlightAware ADS-B
Mon 07:24:38 PM 41.5610 -103.3810 91° East 508 585 35,000  Level FlightAware ADS-B
Mon 07:25:22 PM 41.5590 -103.2440 91° East 509 586 35,000  Level FlightAware ADS-B
Mon 07:26:00 PM 41.5570 -103.1220 91° East 511 588 35,000  Level FlightAware ADS-B
Mon 07:26:38 PM 41.5550 -103.0200 91° East 511 588 35,000  Level FlightAware ADS-B
Mon 07:27:27 PM 41.5540 -102.8890 91° East 511 588 35,000  Level FlightAware ADS-B
Mon 07:28:06 PM 41.5490 -102.7270 92° East 510 587 35,000  Level FlightAware ADS-B
Mon 07:28:50 PM 41.5470 -102.6070 91° East 509 586 35,000  Level FlightAware ADS-B
Mon 07:29:38 PM 41.5460 -102.4780 91° East 509 586 35,000  Level FlightAware ADS-B
Mon 07:30:18 PM 41.5400 -102.3180 93° East 502 578 35,000  Level FlightAware ADS-B
Mon 07:31:14 PM 41.5360 -102.1470 92° East 502 578 35,000  Level FlightAware ADS-B
Mon 07:32:04 PM 41.5320 -101.9990 92° East 500 575 35,000  Level FlightAware ADS-B
Mon 07:33:21 PM 41.5260 -101.7810 92° East 497 572 35,000  Level FlightAware ADS-B
Mon 07:33:57 PM 41.5240 -101.6870 92° East 497 572 35,000  Level FlightAware ADS-B
Mon 07:34:40 PM 41.5180 -101.5150 93° East 495 570 35,000  Level FlightAware ADS-B
Mon 07:35:30 PM 41.5140 -101.3850 92° East 495 570 35,000  Level FlightAware ADS-B
Mon 07:36:06 PM 41.5120 -101.2910 92° East 495 570 35,000  Level FlightAware ADS-B
Mon 07:36:54 PM 41.5090 -101.1670 92° East 495 570 35,000  Level FlightAware ADS-B
Mon 07:37:30 PM 41.5060 -101.0730 92° East 495 570 35,000  Level FlightAware ADS-B
Mon 07:38:18 PM 41.5030 -100.9480 92° East 495 570 35,000  Level FlightAware ADS-B
Mon 07:38:54 PM 41.5000 -100.8550 92° East 495 570 35,000  Level FlightAware ADS-B
Mon 07:39:42 PM 41.4970 -100.7300 92° East 495 570 35,000  Level FlightAware ADS-B
Mon 07:40:18 PM 41.4950 -100.6370 92° East 495 570 35,000  Level FlightAware ADS-B
Mon 07:40:54 PM 41.4920 -100.5430 92° East 495 570 35,000  Level FlightAware ADS-B
Mon 07:41:31 PM 41.4900 -100.4470 92° East 495 570 35,000  Level FlightAware ADS-B
Mon 07:42:09 PM 41.4870 -100.3480 92° East 495 570 35,000  Level FlightAware ADS-B
Mon 07:42:45 PM 41.4850 -100.2550 92° East 495 570 35,000  Level FlightAware ADS-B
Mon 07:43:32 PM 41.4810 -100.1330 92° East 495 570 35,000  Level FlightAware ADS-B
Mon 07:44:08 PM 41.4790 -100.0390 92° East 495 570 35,000  Level FlightAware ADS-B
Mon 07:44:55 PM 41.4464 -99.6583 92° East 492 566 35,000  Level Denver Center
Mon 07:50:23 PM 41.3930 -98.6540 92° East 483 556 35,000  Level FlightAware ADS-B
Mon 07:51:03 PM 41.3860 -98.5410 95° East 481 554 35,000  Level FlightAware ADS-B
Mon 07:51:43 PM 41.3610 -98.4260 106° East 478 550 35,000  Level FlightAware ADS-B
Mon 07:52:23 PM 41.3190 -98.3290 120° Southeast 478 550 35,000  Level FlightAware ADS-B
Mon 07:53:10 PM 41.2670 -98.2240 123° Southeast 478 550 35,000  Level FlightAware ADS-B
Mon 07:53:48 PM 41.2130 -98.1170 124° Southeast 475 547 35,000  Level FlightAware ADS-B
Mon 07:54:28 PM 41.1650 -98.0210 124° Southeast 474 545 35,000  Level FlightAware ADS-B
Mon 07:55:08 PM 41.1160 -97.9230 124° Southeast 475 547 35,000  Level FlightAware ADS-B
Mon 07:55:38 PM 41.0890 -97.8450 115° Southeast 480 552 35,000  Level FlightAware ADS-B
Mon 07:56:15 PM 41.0880 -97.7370 91° East 479 551 35,000  Level FlightAware ADS-B
Mon 07:56:53 PM 41.0930 -97.6250 87° East 477 549 35,000  Level FlightAware ADS-B
Mon 07:57:33 PM 41.0980 -97.5080 87° East 477 549 35,000  Level FlightAware ADS-B
Mon 07:58:13 PM 41.1030 -97.3970 87° East 478 550 35,000  Level FlightAware ADS-B
Mon 07:58:49 PM 41.1070 -97.2890 87° East 479 551 35,000  Level FlightAware ADS-B
Mon 07:59:33 PM 41.1120 -97.1630 87° East 480 552 35,000  Level FlightAware ADS-B
Mon 08:00:13 PM 41.1160 -97.0430 87° East 480 552 35,000  Level FlightAware ADS-B
Mon 08:00:58 PM 41.1210 -96.9140 87° East 480 552 35,000  Level FlightAware ADS-B
Mon 08:01:43 PM 41.1260 -96.7790 87° East 479 551 35,000  Level FlightAware ADS-B
Mon 08:02:23 PM 41.1300 -96.6600 87° East 479 551 35,000  Level FlightAware ADS-B
Mon 08:03:08 PM 41.1350 -96.5290 87° East 479 551 35,000  Level FlightAware ADS-B
Mon 08:03:43 PM 41.1380 -96.4260 88° East 479 551 35,000  Level FlightAware ADS-B
Mon 08:04:20 PM 41.1410 -96.3240 88° East 477 549 35,000  Level FlightAware ADS-B
Mon 08:05:03 PM 41.1460 -96.1940 87° East 476 548 35,000  Level FlightAware ADS-B
Mon 08:05:43 PM 41.1490 -96.0800 88° East 475 547 35,000  Level FlightAware ADS-B
Mon 08:06:28 PM 41.1530 -95.9450 88° East 474 545 35,000  Level FlightAware ADS-B
Mon 08:07:13 PM 41.1570 -95.8140 88° East 473 544 35,000  Level FlightAware ADS-B
Mon 08:07:48 PM 41.1590 -95.7170 88° East 472 543 35,000  Level FlightAware ADS-B
Mon 08:08:38 PM 41.1630 -95.5680 88° East 472 543 35,000  Level FlightAware ADS-B
Mon 08:09:17 PM 41.1660 -95.4560 88° East 473 544 35,000  Level FlightAware ADS-B
Mon 08:09:59 PM 41.1690 -95.3320 88° East 473 544 35,000  Level FlightAware ADS-B
Mon 08:10:43 PM 41.1720 -95.2060 88° East 473 544 35,000  Level FlightAware ADS-B
Mon 08:11:33 PM 41.1750 -95.0740 88° East 473 544 35,000  Level FlightAware ADS-B
Mon 08:12:19 PM 41.1770 -94.9290 89° East 473 544 35,000  Level FlightAware ADS-B
Mon 08:13:03 PM 41.1800 -94.8000 88° East 475 547 35,000  Level FlightAware ADS-B
Mon 08:13:43 PM 41.1820 -94.6890 89° East 478 550 35,000  Level FlightAware ADS-B
Mon 08:14:50 PM 41.1860 -94.5160 88° East 481 554 35,000  Level FlightAware ADS-B
Mon 08:15:38 PM 41.1890 -94.3960 88° East 481 554 35,000  Level FlightAware ADS-B
Mon 08:16:24 PM 41.1920 -94.2800 88° East 481 554 35,000  Level FlightAware ADS-B
Mon 08:17:02 PM 41.1910 -94.0960 90° East 482 555 35,000  Level FlightAware ADS-B
Mon 08:17:51 PM 41.1930 -93.9630 89° East 481 554 35,000  Level FlightAware ADS-B
Mon 08:18:27 PM 41.1940 -93.8720 89° East 481 554 35,000  Level FlightAware ADS-B
Mon 08:19:27 PM 41.1960 -93.6750 89° East 479 551 35,000  Level FlightAware ADS-B
Mon 08:20:11 PM 41.1970 -93.5620 89° East 479 551 35,000 -217 Level FlightAware ADS-B
Mon 08:20:50 PM 41.1970 -93.4290 90° East 479 551 34,700 -723 Descending FlightAware ADS-B
Mon 08:21:34 PM 41.1980 -93.3000 89° East 482 555 34,000 -988 Descending FlightAware ADS-B
Mon 08:22:15 PM 41.1990 -93.1770 89° East 487 560 33,300 -1,000 Descending FlightAware ADS-B
Mon 08:22:52 PM 41.1990 -93.0640 90° East 489 563 32,700 -940 Descending FlightAware ADS-B
Mon 08:23:38 PM 41.2000 -92.9280 89° East 489 563 32,000 -929 Descending FlightAware ADS-B
Mon 08:24:16 PM 41.2000 -92.8130 90° East 490 564 31,400 -987 Descending FlightAware ADS-B
Mon 08:24:57 PM 41.2000 -92.6920 90° East 489 563 30,700 -988 Descending FlightAware ADS-B
Mon 08:25:41 PM 41.2000 -92.5640 90° East 489 563 30,000 -963 Descending FlightAware ADS-B
Mon 08:26:18 PM 41.2000 -92.4540 90° East 490 564 29,400 -911 Descending FlightAware ADS-B
Mon 08:27:00 PM 41.1990 -92.3230 91° East 488 562 28,800 -857 Descending FlightAware ADS-B
Mon 08:27:42 PM 41.1990 -92.2010 90° East 484 557 28,200 -940 Descending FlightAware ADS-B
Mon 08:28:23 PM 41.1990 -92.0800 90° East 490 564 27,500 -923 Descending FlightAware ADS-B
Mon 08:29:00 PM 41.1980 -91.9630 91° East 496 571 27,000 -366 Descending FlightAware ADS-B
Mon 08:29:45 PM 41.1980 -91.8460 90° East 494 568 27,000  Level FlightAware ADS-B
Mon 08:30:24 PM 41.1960 -91.7240 91° East 451 519 27,000  Level FlightAware ADS-B
Mon 08:31:05 PM 41.1960 -91.6280 90° East 451 519 27,000 -847 Level FlightAware ADS-B
Mon 08:31:49 PM 41.1950 -91.5020 91° East 447 514 25,800 -1,975 Descending FlightAware ADS-B
Mon 08:32:24 PM 41.1930 -91.3990 91° East 443 510 24,400 -1,692 Descending FlightAware ADS-B
Mon 08:33:07 PM 41.1920 -91.2810 91° East 434 499 23,600 -1,000 Descending FlightAware ADS-B
Mon 08:33:48 PM 41.1910 -91.1730 91° East 427 491 23,000 -486 Descending FlightAware ADS-B
Mon 08:34:21 PM 41.1900 -91.0880 91° East 426 490 23,000  Level FlightAware ADS-B
Mon 08:35:05 PM 41.1880 -90.9740 91° East 425 489 23,000  Level FlightAware ADS-B
Mon 08:36:01 PM 41.1860 -90.8360 91° East 425 489 23,000 -612 Level FlightAware ADS-B
Mon 08:36:43 PM 41.1840 -90.7170 91° East 422 486 22,000 -732 Descending FlightAware ADS-B
Mon 08:37:23 PM 41.1820 -90.6130 91° East 420 483 22,000  Level FlightAware ADS-B
Mon 08:38:04 PM 41.1800 -90.5120 91° East 420 483 22,000  Level FlightAware ADS-B
Mon 08:38:47 PM 41.1780 -90.3950 91° East 425 489 22,000 -414 Level FlightAware ADS-B
Mon 08:39:31 PM 41.1760 -90.2810 91° East 443 510 21,400 -929 Descending FlightAware ADS-B
Mon 08:40:11 PM 41.1740 -90.1700 91° East 440 506 20,700 -1,000 Descending FlightAware ADS-B
Mon 08:40:55 PM 41.1710 -90.0530 92° East 431 496 20,000 -1,000 Descending FlightAware ADS-B
Mon 08:41:35 PM 41.1690 -89.9490 91° East 426 490 19,300 -1,024 Descending FlightAware ADS-B
Mon 08:42:17 PM 41.1660 -89.8400 92° East 424 488 18,600 -988 Descending FlightAware ADS-B
Mon 08:43:00 PM 41.1630 -89.7310 92° East 415 478 17,900 -1,024 Descending FlightAware ADS-B
Mon 08:43:39 PM 41.1610 -89.6320 92° East 410 472 17,200 -975 Descending FlightAware ADS-B
Mon 08:44:20 PM 41.1630 -89.5370 88° East 412 474 16,600 -1,290 Descending FlightAware ADS-B
Mon 08:45:26 PM 41.1750 -89.3650 85° East 399 459 14,900 -1,811 Descending FlightAware ADS-B
Mon 08:46:06 PM 41.1820 -89.2660 85° East 394 453 13,400 -2,302 Descending FlightAware ADS-B
Mon 08:46:52 PM 41.1890 -89.1570 85° East 387 445 11,600 -2,276 Descending FlightAware ADS-B
Mon 08:47:33 PM 41.2120 -89.0650 72° East 376 433 10,100 -1,412 Descending FlightAware ADS-B
Mon 08:48:00 PM 41.2350 -89.0150 59° Northeast 368 423 10,000 -109 Descending FlightAware ADS-B
Mon 08:48:28 PM 41.2590 -88.9610 59° Northeast 345 397 10,000  Level FlightAware ADS-B
Mon 08:48:57 PM 41.2830 -88.9100 58° Northeast 313 360 10,000 -333 Level FlightAware ADS-B
Mon 08:49:22 PM 41.3000 -88.8700 60° Northeast 305 351 9,700 -840 Descending FlightAware ADS-B
Mon 08:49:47 PM 41.3180 -88.8300 59° Northeast 301 346 9,300 -1,021 Descending FlightAware ADS-B
Mon 08:50:09 PM 41.3340 -88.7950 59° Northeast 299 344 8,900 -906 Descending FlightAware ADS-B
Mon 08:50:40 PM 41.3550 -88.7480 59° Northeast 296 341 8,500 -900 Descending FlightAware ADS-B
Mon 08:51:09 PM 41.3760 -88.7010 59° Northeast 293 337 8,000 -947 Descending FlightAware ADS-B
Mon 08:51:37 PM 41.3950 -88.6580 59° Northeast 292 336 7,600 -857 Descending FlightAware ADS-B
Mon 08:52:05 PM 41.4150 -88.6150 58° Northeast 291 335 7,200 -964 Descending FlightAware ADS-B
Mon 08:52:33 PM 41.4340 -88.5710 60° Northeast 289 333 6,700 -947 Descending FlightAware ADS-B
Mon 08:53:02 PM 41.4540 -88.5270 59° Northeast 285 328 6,300 -724 Descending FlightAware ADS-B
Mon 08:53:31 PM 41.4730 -88.4830 60° Northeast 281 323 6,000 -439 Descending FlightAware ADS-B
Mon 08:53:43 PM 41.4810 -88.4660 58° Northeast 281 323 6,000  Level FlightAware ADS-B
Mon 08:54:10 PM 41.4980 -88.4270 60° Northeast 280 322 6,000 -308 Level FlightAware ADS-B
Mon 08:54:22 PM 41.5030 -88.4060 72° East 285 328 5,800 -1,000 Descending FlightAware ADS-B
Mon 08:54:46 PM 41.5090 -88.3630 79° East 284 327 5,400 -906 Descending FlightAware ADS-B
Mon 08:55:15 PM 41.5150 -88.3160 80° East 283 326 5,000 -533 Descending FlightAware ADS-B
Mon 08:55:31 PM 41.5190 -88.2870 80° East 281 323 5,000  Level FlightAware ADS-B
Mon 08:56:00 PM 41.5250 -88.2360 81° East 279 321 5,000  Level FlightAware ADS-B
Mon 08:56:21 PM 41.5300 -88.2020 79° East 279 321 5,000  Level FlightAware ADS-B
Mon 08:56:45 PM 41.5350 -88.1610 81° East 278 320 5,000  Level FlightAware ADS-B
Mon 08:57:12 PM 41.5400 -88.1170 81° East 274 315 5,000  Level FlightAware ADS-B
Mon 08:57:41 PM 41.5390 -88.0710 92° East 254 292 5,000  Level FlightAware ADS-B
Mon 08:58:09 PM 41.5390 -88.0280 90° East 249 287 5,000  Level FlightAware ADS-B
Mon 08:58:29 PM 41.5390 -87.9970 90° East 248 285 5,000  Level FlightAware ADS-B
Mon 08:58:47 PM 41.5390 -87.9680 90° East 249 287 5,000  Level FlightAware ADS-B
Mon 08:59:15 PM 41.5380 -87.9240 92° East 250 288 5,000  Level FlightAware ADS-B
Mon 08:59:28 PM 41.5380 -87.9050 90° East 250 288 5,000  Level FlightAware ADS-B
Mon 08:59:56 PM 41.5380 -87.8620 90° East 251 289 5,000  Level FlightAware ADS-B
Mon 09:00:12 PM 41.5380 -87.8360 90° East 251 289 5,000  Level FlightAware ADS-B
Mon 09:00:36 PM 41.5380 -87.7980 90° East 251 289 5,000 -346 Level FlightAware ADS-B
Mon 09:01:04 PM 41.5480 -87.7600 71° East 241 277 4,700 -900 Descending FlightAware ADS-B
Mon 09:01:36 PM 41.5700 -87.7220 52° Northeast 245 282 4,100 -1,091 Descending FlightAware ADS-B
Mon 09:01:48 PM 41.5790 -87.7070 51° Northeast 246 283 3,900 -973 Descending FlightAware ADS-B
Mon 09:02:13 PM 41.5970 -87.6780 50° Northeast 249 287 3,500 -964 Descending FlightAware ADS-B
Mon 09:02:44 PM 41.6200 -87.6410 50° Northeast 247 284 3,000 -508 Descending FlightAware ADS-B
Mon 09:03:12 PM 41.6390 -87.6100 51° Northeast 215 247 3,000  Level FlightAware ADS-B
Mon 09:03:27 PM 41.6500 -87.6030 25° Northeast 191 220 3,000  Level FlightAware ADS-B
Mon 09:03:40 PM 41.6620 -87.6050 353° North 178 205 3,000  Level FlightAware ADS-B
Mon 09:04:08 PM 41.6840 -87.6140 343° North 176 203 3,000 -150 Level FlightAware ADS-B
Mon 09:04:20 PM 41.6920 -87.6210 327° Northwest 169 194 2,900 -585 Descending FlightAware ADS-B
Mon 09:04:49 PM 41.7070 -87.6430 312° West 170 196 2,600 -737 Descending FlightAware ADS-B
Mon 09:05:17 PM 41.7220 -87.6630 315° West 171 197 2,200 -818 Descending FlightAware ADS-B
Mon 09:05:33 PM 41.7330 -87.6730 326° Northwest 182 209 2,000 -286 Descending FlightAware ADS-B
Mon 09:05:59 PM 41.7540 -87.6690 North 188 216 2,000  Level FlightAware ADS-B
Mon 09:06:13 PM 41.7670 -87.6690 360° North 187 215 2,000 -136 Level FlightAware ADS-B
Mon 09:06:43 PM 41.7910 -87.6710 356° North 167 192 1,900 -522 Descending FlightAware ADS-B
Mon 09:06:59 PM 41.8010 -87.6790 329° Northwest 152 175 1,600 -857 Descending FlightAware ADS-B
Mon 09:07:11 PM 41.8060 -87.6870 310° West 141 162 1,500 -750 Descending FlightAware ADS-B
Mon 09:07:23 PM 41.8110 -87.6970 304° West 138 159 1,300 -346 Descending FlightAware ADS-B
Mon 09:08:03 PM 41.8180 -87.7260 288° West 138 159 1,200 -150 Descending FlightAware ADS-B
Mon 09:08:43 PM 41.8117 -87.7550 288° West 154 177 1,100 -150 Descending Chicago Center

Login

Don't have an account? Register now (free) for customized features, flight alerts, and more!